Japan Airlines Virtual Airport Information Service

Ho Chi Minh City International Airport

ICAO: VVTS Country: Vietnam
Latitude: 10.8188 Longitude: 106.652
Latest Arrival : CAL783 (RCTP-VVTS) Latest Departure : MAS134 (VVTS-WBKK)


WX CaptureLIVE
Data provided by noaa.gov | Fetched at 13:48:34

METAR : VVTS 281330Z 07004KT 030V130 9000 FEW020 27/20 Q1011 NOSIG

TAF : VVTS 281100Z 2812/2918 18010KT 8000 SCT017 BECMG 2816/2817 VRB03KT BECMG 2822/2823 35010KT


Runway Data for VVTS
Data provided by openaviationdata.com

Runway ID Mag Var Hdg Length Elevation Surface ILS Freq ILS Id ILS Slope
07L 0 69° 10026 ft 33 ft Concrete -- -- --
07R 0 69° 12396 ft 33 ft Concrete -- -- --
25L 0 249° 12396 ft 33 ft Concrete 108.3 SGN 3
25R 0 249° 10026 ft 33 ft Concrete 110.5 HCM 3

Ho Chi Minh City International Airport, Vietnam
Use only for reference purposes



Not for navigational purposes.